Valley International Airport
KHRL : now visible

Airfield :











YOU CAN JOIN US ON...

 
LOGIN :

Register | Disclaimer

   EN    FR    IT 

 









Legend :    VFR   Marginal VFR   IFR   Intensive IFR   Very Intensive IFR
Visi :
Ceiling :
>= 8 km
>= 3000ft
5 to 8 km
1000 to 3000 ft
1500m to 5 km
500 to 1000 ft
800 to 1500m
200 to 500 ft
< 800m
< 200 ft
Symbols :   Thunderstorms  Fog  Heavy snow  Heavy precipitations  Wind > 20 kt







- Airport Elevation : 36 ft
- IATA code : HRL


KHRL - Valley International

CURRENT METAR :
  • 162152Z 35003KT 10SM CLR 26/24 A2988 RMK AO2 RAE08 SLP117 P0001 T02610244

EXPIRED METARs :
  • 162059Z 29005KT 3SM RA BR BKN037 BKN075 OVC110 25/24 A2989 RMK AO2 P0001 T02500239
  • 162052Z 28005KT 1SM +RA BR BKN036 BKN055 OVC070 24/24 A2990 RMK AO2 RAB07 TSB1955 SLP124 P0049 60057 T02440239 58016
  • 162043Z 33006KT 3/4SM +RA BR BKN030 BKN055 OVC075 24/24 A2991 RMK AO2 LTG DSNT N RAB07 TSB1955 P0040 T02440239
  • 162025Z 32005KT 3SM RA BR SCT032 BKN050 OVC070 25/24 A2991 RMK AO2 LTG DSNT N AND NW RAB07 TSB1955 P0009 T02500239
  • 162013Z 30006KT 2 1/2SM +RA FEW032 BKN042 BKN050 26/23 A2992 RMK AO2 LTG DSNT N AND NW RAB07 TSB1955 P0005 T02610233
  • 161952Z 14004KT 10SM FEW041 FEW090 28/23 A2992 RMK AO2 RAE21 SLP130 P0003 T02780233

TAF KHRL
Valid from the 16 at 21:00 until the 17 at 18:00 UTC


162042Z 1621/1718 35008KT 1 1/2SM +TSRA BR FEW030 BKN060CB OVC070
FM162200 05004KT P6SM FEW030 SCT120 BKN250
FM170500 29005KT P6SM FEW150 SCT250
No reported NOTAMs for that airfield.



MET'MAP, your aeronautical weather chart ! - Copyright ORBIFLY December 2007 - Disclaimer

ORBIFLY MET'MAP TEAM :

Programming & Development : Alexandra Zaïnal
Concept & Development : Baudouin d'Aumeries
Co-Development & Prog : Marc-Olivier Méhu
Technical & hardware support : Manuel Goepfert

Contact : metmap@orbifly.com




SOURCES & CREDITS :

   NOAA       Earth
Advisory